sensor_id;sensor_type;location;lat;lon;timestamp;P1;durP1;ratioP1;P2;durP2;ratioP2
55461;SDS011;41327;45.102;20.624;2022-09-21T00:01:10;3.05;;;2.15;;
55461;SDS011;41327;45.102;20.624;2022-09-21T00:03:38;3.35;;;2.10;;
55461;SDS011;41327;45.102;20.624;2022-09-21T00:06:06;4.60;;;2.40;;
55461;SDS011;41327;45.102;20.624;2022-09-21T00:08:33;3.60;;;2.20;;
55461;SDS011;41327;45.102;20.624;2022-09-21T00:10:59;4.88;;;2.55;;
55461;SDS011;41327;45.102;20.624;2022-09-21T00:13:25;5.75;;;2.45;;
55461;SDS011;41327;45.102;20.624;2022-09-21T00:16:05;4.45;;;2.50;;
55461;SDS011;41327;45.102;20.624;2022-09-21T00:18:36;5.47;;;2.75;;
55461;SDS011;41327;45.102;20.624;2022-09-21T00:21:08;4.95;;;2.88;;
55461;SDS011;41327;45.102;20.624;2022-09-21T00:23:36;4.50;;;2.80;;
55461;SDS011;41327;45.102;20.624;2022-09-21T00:26:10;4.07;;;2.38;;
55461;SDS011;41327;45.102;20.624;2022-09-21T00:28:43;4.22;;;2.60;;
55461;SDS011;41327;45.102;20.624;2022-09-21T00:31:09;3.20;;;2.20;;
55461;SDS011;41327;45.102;20.624;2022-09-21T00:33:37;4.47;;;2.53;;
55461;SDS011;41327;45.102;20.624;2022-09-21T00:36:04;3.83;;;2.30;;
55461;SDS011;41327;45.102;20.624;2022-09-21T00:38:31;3.08;;;2.13;;
55461;SDS011;41327;45.102;20.624;2022-09-21T00:40:57;3.63;;;2.00;;
55461;SDS011;41327;45.102;20.624;2022-09-21T00:43:23;3.42;;;2.67;;
55461;SDS011;41327;45.102;20.624;2022-09-21T00:45:48;5.75;;;2.35;;
55461;SDS011;41327;45.102;20.624;2022-09-21T00:48:15;2.92;;;2.05;;
55461;SDS011;41327;45.102;20.624;2022-09-21T00:50:42;3.78;;;2.50;;
55461;SDS011;41327;45.102;20.624;2022-09-21T00:53:11;3.33;;;2.40;;
55461;SDS011;41327;45.102;20.624;2022-09-21T00:55:45;5.47;;;2.70;;
55461;SDS011;41327;45.102;20.624;2022-09-21T00:58:14;2.67;;;2.30;;
55461;SDS011;41327;45.102;20.624;2022-09-21T01:00:43;4.88;;;2.40;;
55461;SDS011;41327;45.102;20.624;2022-09-21T01:03:09;3.85;;;2.55;;
55461;SDS011;41327;45.102;20.624;2022-09-21T01:05:36;4.97;;;2.33;;
55461;SDS011;41327;45.102;20.624;2022-09-21T01:08:02;4.60;;;2.88;;
55461;SDS011;41327;45.102;20.624;2022-09-21T01:10:31;3.63;;;2.78;;
55461;SDS011;41327;45.102;20.624;2022-09-21T01:16:22;3.15;;;2.28;;
55461;SDS011;41327;45.102;20.624;2022-09-21T01:21:37;4.47;;;2.50;;
55461;SDS011;41327;45.102;20.624;2022-09-21T01:24:51;4.25;;;2.72;;
55461;SDS011;41327;45.102;20.624;2022-09-21T01:27:24;3.45;;;2.47;;
55461;SDS011;41327;45.102;20.624;2022-09-21T01:29:54;7.05;;;2.38;;
55461;SDS011;41327;45.102;20.624;2022-09-21T01:33:25;4.50;;;2.35;;
55461;SDS011;41327;45.102;20.624;2022-09-21T01:38:10;2.90;;;2.05;;
55461;SDS011;41327;45.102;20.624;2022-09-21T01:40:42;4.13;;;2.45;;
55461;SDS011;41327;45.102;20.624;2022-09-21T01:43:28;3.05;;;2.10;;
55461;SDS011;41327;45.102;20.624;2022-09-21T01:46:00;5.68;;;2.70;;
55461;SDS011;41327;45.102;20.624;2022-09-21T01:48:37;3.60;;;2.53;;
55461;SDS011;41327;45.102;20.624;2022-09-21T01:51:16;4.63;;;2.47;;
55461;SDS011;41327;45.102;20.624;2022-09-21T01:53:45;3.70;;;2.30;;
55461;SDS011;41327;45.102;20.624;2022-09-21T01:56:17;3.72;;;2.30;;
55461;SDS011;41327;45.102;20.624;2022-09-21T01:58:49;3.72;;;2.42;;
55461;SDS011;41327;45.102;20.624;2022-09-21T02:01:17;3.67;;;2.40;;
55461;SDS011;41327;45.102;20.624;2022-09-21T02:03:49;4.10;;;2.50;;
55461;SDS011;41327;45.102;20.624;2022-09-21T02:06:17;2.50;;;2.10;;
55461;SDS011;41327;45.102;20.624;2022-09-21T02:08:43;5.68;;;2.25;;
55461;SDS011;41327;45.102;20.624;2022-09-21T02:11:10;3.30;;;2.13;;
55461;SDS011;41327;45.102;20.624;2022-09-21T02:13:42;3.72;;;2.33;;
55461;SDS011;41327;45.102;20.624;2022-09-21T02:18:52;3.35;;;2.42;;
55461;SDS011;41327;45.102;20.624;2022-09-21T02:22:08;4.38;;;2.35;;
55461;SDS011;41327;45.102;20.624;2022-09-21T02:24:31;4.40;;;2.17;;
55461;SDS011;41327;45.102;20.624;2022-09-21T02:30:13;3.50;;;2.33;;
55461;SDS011;41327;45.102;20.624;2022-09-21T02:38:20;4.28;;;2.20;;
55461;SDS011;41327;45.102;20.624;2022-09-21T02:43:22;2.35;;;1.80;;
55461;SDS011;41327;45.102;20.624;2022-09-21T02:45:58;3.10;;;2.00;;
55461;SDS011;41327;45.102;20.624;2022-09-21T02:48:30;4.00;;;2.75;;
55461;SDS011;41327;45.102;20.624;2022-09-21T02:51:06;3.38;;;2.03;;
55461;SDS011;41327;45.102;20.624;2022-09-21T02:53:34;4.18;;;2.35;;
55461;SDS011;41327;45.102;20.624;2022-09-21T02:56:01;3.88;;;2.30;;
55461;SDS011;41327;45.102;20.624;2022-09-21T02:58:29;5.13;;;2.67;;
55461;SDS011;41327;45.102;20.624;2022-09-21T03:00:55;4.45;;;2.90;;
55461;SDS011;41327;45.102;20.624;2022-09-21T03:03:23;4.47;;;2.40;;
55461;SDS011;41327;45.102;20.624;2022-09-21T03:05:51;3.40;;;2.22;;
55461;SDS011;41327;45.102;20.624;2022-09-21T03:08:17;4.28;;;2.95;;
55461;SDS011;41327;45.102;20.624;2022-09-21T03:10:43;4.32;;;3.10;;
55461;SDS011;41327;45.102;20.624;2022-09-21T03:13:09;4.72;;;3.00;;
55461;SDS011;41327;45.102;20.624;2022-09-21T03:15:35;5.15;;;2.80;;
55461;SDS011;41327;45.102;20.624;2022-09-21T03:18:01;4.88;;;2.72;;
55461;SDS011;41327;45.102;20.624;2022-09-21T03:20:30;5.53;;;2.60;;
55461;SDS011;41327;45.102;20.624;2022-09-21T03:22:56;3.85;;;2.92;;
55461;SDS011;41327;45.102;20.624;2022-09-21T03:25:22;4.15;;;2.60;;
55461;SDS011;41327;45.102;20.624;2022-09-21T03:27:47;3.95;;;2.40;;
55461;SDS011;41327;45.102;20.624;2022-09-21T03:30:21;3.95;;;2.72;;
55461;SDS011;41327;45.102;20.624;2022-09-21T03:32:50;3.88;;;2.55;;
55461;SDS011;41327;45.102;20.624;2022-09-21T03:35:17;4.00;;;2.65;;
55461;SDS011;41327;45.102;20.624;2022-09-21T03:37:43;4.65;;;2.97;;
55461;SDS011;41327;45.102;20.624;2022-09-21T03:40:10;3.67;;;2.78;;
55461;SDS011;41327;45.102;20.624;2022-09-21T03:42:36;3.53;;;2.50;;
55461;SDS011;41327;45.102;20.624;2022-09-21T03:45:03;3.83;;;2.42;;
55461;SDS011;41327;45.102;20.624;2022-09-21T03:47:29;4.35;;;3.13;;
55461;SDS011;41327;45.102;20.624;2022-09-21T03:49:54;5.10;;;2.70;;
55461;SDS011;41327;45.102;20.624;2022-09-21T03:52:20;3.75;;;2.55;;
55461;SDS011;41327;45.102;20.624;2022-09-21T03:54:45;3.20;;;2.40;;
55461;SDS011;41327;45.102;20.624;2022-09-21T03:57:11;4.22;;;2.80;;
55461;SDS011;41327;45.102;20.624;2022-09-21T03:59:36;3.90;;;3.05;;
55461;SDS011;41327;45.102;20.624;2022-09-21T04:02:02;3.47;;;2.42;;
55461;SDS011;41327;45.102;20.624;2022-09-21T04:04:27;4.00;;;2.83;;
55461;SDS011;41327;45.102;20.624;2022-09-21T04:06:53;2.53;;;2.33;;
55461;SDS011;41327;45.102;20.624;2022-09-21T04:09:18;4.97;;;2.90;;
55461;SDS011;41327;45.102;20.624;2022-09-21T04:11:44;3.67;;;2.92;;
55461;SDS011;41327;45.102;20.624;2022-09-21T04:14:10;3.33;;;2.20;;
55461;SDS011;41327;45.102;20.624;2022-09-21T04:16:36;3.80;;;2.70;;
55461;SDS011;41327;45.102;20.624;2022-09-21T04:19:02;3.80;;;2.15;;
55461;SDS011;41327;45.102;20.624;2022-09-21T04:21:27;3.70;;;2.50;;
55461;SDS011;41327;45.102;20.624;2022-09-21T04:23:54;4.47;;;2.40;;
55461;SDS011;41327;45.102;20.624;2022-09-21T04:26:20;4.38;;;3.03;;
55461;SDS011;41327;45.102;20.624;2022-09-21T04:28:53;3.30;;;2.33;;
55461;SDS011;41327;45.102;20.624;2022-09-21T04:31:19;3.50;;;2.35;;
55461;SDS011;41327;45.102;20.624;2022-09-21T04:33:48;2.75;;;1.90;;
55461;SDS011;41327;45.102;20.624;2022-09-21T04:36:16;3.85;;;2.28;;
55461;SDS011;41327;45.102;20.624;2022-09-21T04:38:42;5.85;;;2.00;;
55461;SDS011;41327;45.102;20.624;2022-09-21T04:41:08;3.03;;;1.83;;
55461;SDS011;41327;45.102;20.624;2022-09-21T04:43:33;2.85;;;2.00;;
55461;SDS011;41327;45.102;20.624;2022-09-21T04:46:09;2.97;;;2.10;;
55461;SDS011;41327;45.102;20.624;2022-09-21T04:48:38;2.55;;;1.73;;
55461;SDS011;41327;45.102;20.624;2022-09-21T04:51:04;3.60;;;2.05;;
55461;SDS011;41327;45.102;20.624;2022-09-21T04:53:33;4.30;;;1.70;;
55461;SDS011;41327;45.102;20.624;2022-09-21T04:56:01;2.60;;;1.70;;
55461;SDS011;41327;45.102;20.624;2022-09-21T04:58:28;3.40;;;1.85;;
55461;SDS011;41327;45.102;20.624;2022-09-21T05:00:53;2.53;;;2.00;;
55461;SDS011;41327;45.102;20.624;2022-09-21T05:03:20;6.20;;;2.30;;
55461;SDS011;41327;45.102;20.624;2022-09-21T05:05:49;4.22;;;1.95;;
55461;SDS011;41327;45.102;20.624;2022-09-21T05:08:16;3.85;;;2.03;;
55461;SDS011;41327;45.102;20.624;2022-09-21T05:10:42;2.50;;;1.60;;
55461;SDS011;41327;45.102;20.624;2022-09-21T05:13:08;3.67;;;2.50;;
55461;SDS011;41327;45.102;20.624;2022-09-21T05:15:37;4.35;;;1.88;;
55461;SDS011;41327;45.102;20.624;2022-09-21T05:18:03;3.15;;;2.05;;
55461;SDS011;41327;45.102;20.624;2022-09-21T05:20:29;3.15;;;2.38;;
55461;SDS011;41327;45.102;20.624;2022-09-21T05:22:58;5.25;;;2.15;;
55461;SDS011;41327;45.102;20.624;2022-09-21T05:25:25;4.18;;;2.10;;
55461;SDS011;41327;45.102;20.624;2022-09-21T05:27:51;3.88;;;2.60;;
55461;SDS011;41327;45.102;20.624;2022-09-21T05:30:17;4.00;;;2.75;;
55461;SDS011;41327;45.102;20.624;2022-09-21T05:33:03;3.58;;;2.50;;
55461;SDS011;41327;45.102;20.624;2022-09-21T05:38:08;4.13;;;2.63;;
55461;SDS011;41327;45.102;20.624;2022-09-21T05:40:41;3.75;;;2.50;;
55461;SDS011;41327;45.102;20.624;2022-09-21T05:43:07;3.88;;;2.40;;
55461;SDS011;41327;45.102;20.624;2022-09-21T05:45:33;4.53;;;2.60;;
55461;SDS011;41327;45.102;20.624;2022-09-21T05:53:13;19.05;;;8.20;;
55461;SDS011;41327;45.102;20.624;2022-09-21T05:58:25;6.78;;;3.55;;
55461;SDS011;41327;45.102;20.624;2022-09-21T06:03:26;3.47;;;2.60;;
55461;SDS011;41327;45.102;20.624;2022-09-21T06:05:56;3.65;;;2.47;;
55461;SDS011;41327;45.102;20.624;2022-09-21T06:08:22;3.60;;;2.53;;
55461;SDS011;41327;45.102;20.624;2022-09-21T06:10:48;4.28;;;2.78;;
55461;SDS011;41327;45.102;20.624;2022-09-21T06:13:14;4.78;;;3.05;;
55461;SDS011;41327;45.102;20.624;2022-09-21T06:15:40;3.30;;;2.30;;
55461;SDS011;41327;45.102;20.624;2022-09-21T06:18:06;4.30;;;2.58;;
55461;SDS011;41327;45.102;20.624;2022-09-21T06:20:32;3.70;;;2.47;;
55461;SDS011;41327;45.102;20.624;2022-09-21T06:23:02;5.10;;;3.30;;
55461;SDS011;41327;45.102;20.624;2022-09-21T06:25:30;4.80;;;3.03;;
55461;SDS011;41327;45.102;20.624;2022-09-21T06:28:00;6.13;;;3.22;;
55461;SDS011;41327;45.102;20.624;2022-09-21T06:30:36;4.45;;;3.00;;
55461;SDS011;41327;45.102;20.624;2022-09-21T06:33:03;5.60;;;3.28;;
55461;SDS011;41327;45.102;20.624;2022-09-21T06:35:30;4.63;;;3.05;;
55461;SDS011;41327;45.102;20.624;2022-09-21T06:37:58;3.92;;;2.95;;
55461;SDS011;41327;45.102;20.624;2022-09-21T06:40:28;5.82;;;3.92;;
55461;SDS011;41327;45.102;20.624;2022-09-21T06:42:55;4.82;;;3.60;;
55461;SDS011;41327;45.102;20.624;2022-09-21T06:45:24;6.90;;;4.60;;
55461;SDS011;41327;45.102;20.624;2022-09-21T06:47:53;8.40;;;5.05;;
55461;SDS011;41327;45.102;20.624;2022-09-21T06:50:19;8.43;;;5.03;;
55461;SDS011;41327;45.102;20.624;2022-09-21T06:52:44;8.23;;;4.97;;
55461;SDS011;41327;45.102;20.624;2022-09-21T06:55:10;6.45;;;4.38;;
55461;SDS011;41327;45.102;20.624;2022-09-21T06:57:36;8.95;;;4.65;;
55461;SDS011;41327;45.102;20.624;2022-09-21T07:00:04;7.43;;;5.18;;
55461;SDS011;41327;45.102;20.624;2022-09-21T07:02:30;8.25;;;5.68;;
55461;SDS011;41327;45.102;20.624;2022-09-21T07:04:56;8.25;;;5.05;;
55461;SDS011;41327;45.102;20.624;2022-09-21T07:07:23;7.10;;;4.75;;
55461;SDS011;41327;45.102;20.624;2022-09-21T07:09:49;7.05;;;4.68;;
55461;SDS011;41327;45.102;20.624;2022-09-21T07:12:16;7.30;;;5.18;;
55461;SDS011;41327;45.102;20.624;2022-09-21T07:14:42;9.07;;;5.40;;
55461;SDS011;41327;45.102;20.624;2022-09-21T07:17:09;6.40;;;4.68;;
55461;SDS011;41327;45.102;20.624;2022-09-21T07:19:35;6.15;;;4.32;;
55461;SDS011;41327;45.102;20.624;2022-09-21T07:22:00;7.32;;;4.65;;
55461;SDS011;41327;45.102;20.624;2022-09-21T07:24:26;6.00;;;4.30;;
55461;SDS011;41327;45.102;20.624;2022-09-21T07:26:52;7.25;;;4.85;;
55461;SDS011;41327;45.102;20.624;2022-09-21T07:29:18;9.15;;;5.55;;
55461;SDS011;41327;45.102;20.624;2022-09-21T07:31:43;9.98;;;5.43;;
55461;SDS011;41327;45.102;20.624;2022-09-21T07:34:09;8.00;;;5.05;;
55461;SDS011;41327;45.102;20.624;2022-09-21T07:36:35;11.27;;;6.60;;
55461;SDS011;41327;45.102;20.624;2022-09-21T07:39:00;7.72;;;5.47;;
55461;SDS011;41327;45.102;20.624;2022-09-21T07:41:27;10.13;;;5.40;;
55461;SDS011;41327;45.102;20.624;2022-09-21T07:43:53;8.07;;;5.28;;
55461;SDS011;41327;45.102;20.624;2022-09-21T07:46:18;10.35;;;6.07;;
55461;SDS011;41327;45.102;20.624;2022-09-21T07:48:44;9.38;;;6.35;;
55461;SDS011;41327;45.102;20.624;2022-09-21T07:51:11;9.82;;;6.03;;
55461;SDS011;41327;45.102;20.624;2022-09-21T07:53:39;9.20;;;6.45;;
55461;SDS011;41327;45.102;20.624;2022-09-21T07:56:10;8.10;;;5.13;;
55461;SDS011;41327;45.102;20.624;2022-09-21T07:58:40;6.25;;;5.22;;
55461;SDS011;41327;45.102;20.624;2022-09-21T08:01:25;8.77;;;6.10;;
55461;SDS011;41327;45.102;20.624;2022-09-21T08:03:51;8.68;;;6.10;;
55461;SDS011;41327;45.102;20.624;2022-09-21T08:06:19;10.68;;;5.60;;
55461;SDS011;41327;45.102;20.624;2022-09-21T08:08:45;9.43;;;6.68;;
55461;SDS011;41327;45.102;20.624;2022-09-21T08:11:12;9.27;;;6.50;;
55461;SDS011;41327;45.102;20.624;2022-09-21T08:13:38;9.90;;;6.18;;
55461;SDS011;41327;45.102;20.624;2022-09-21T08:16:04;8.15;;;5.68;;
55461;SDS011;41327;45.102;20.624;2022-09-21T08:18:30;9.77;;;5.78;;
55461;SDS011;41327;45.102;20.624;2022-09-21T08:20:57;8.25;;;5.65;;
55461;SDS011;41327;45.102;20.624;2022-09-21T08:23:24;8.75;;;6.15;;
55461;SDS011;41327;45.102;20.624;2022-09-21T08:26:02;8.05;;;5.68;;
55461;SDS011;41327;45.102;20.624;2022-09-21T08:28:32;9.77;;;6.03;;
55461;SDS011;41327;45.102;20.624;2022-09-21T08:31:02;6.15;;;4.60;;
55461;SDS011;41327;45.102;20.624;2022-09-21T08:33:29;6.22;;;4.45;;
55461;SDS011;41327;45.102;20.624;2022-09-21T08:35:56;7.72;;;4.68;;
55461;SDS011;41327;45.102;20.624;2022-09-21T08:38:23;6.28;;;4.65;;
55461;SDS011;41327;45.102;20.624;2022-09-21T08:40:49;6.65;;;4.30;;
55461;SDS011;41327;45.102;20.624;2022-09-21T08:43:34;6.13;;;4.43;;
55461;SDS011;41327;45.102;20.624;2022-09-21T08:46:04;5.55;;;4.00;;
55461;SDS011;41327;45.102;20.624;2022-09-21T08:48:33;7.25;;;4.53;;
55461;SDS011;41327;45.102;20.624;2022-09-21T08:51:06;6.47;;;4.15;;
55461;SDS011;41327;45.102;20.624;2022-09-21T08:53:35;5.68;;;4.15;;
55461;SDS011;41327;45.102;20.624;2022-09-21T08:56:03;7.32;;;5.07;;
55461;SDS011;41327;45.102;20.624;2022-09-21T08:58:30;7.53;;;5.97;;
55461;SDS011;41327;45.102;20.624;2022-09-21T09:01:05;6.28;;;4.95;;
55461;SDS011;41327;45.102;20.624;2022-09-21T09:03:34;7.07;;;5.25;;
55461;SDS011;41327;45.102;20.624;2022-09-21T09:19:48;8.05;;;5.13;;
55461;SDS011;41327;45.102;20.624;2022-09-21T09:22:16;5.57;;;3.88;;
55461;SDS011;41327;45.102;20.624;2022-09-21T09:24:50;6.28;;;4.13;;
55461;SDS011;41327;45.102;20.624;2022-09-21T09:32:26;4.28;;;3.80;;
55461;SDS011;41327;45.102;20.624;2022-09-21T09:35:11;6.50;;;4.50;;
55461;SDS011;41327;45.102;20.624;2022-09-21T09:37:43;6.47;;;4.80;;
55461;SDS011;41327;45.102;20.624;2022-09-21T09:40:11;5.50;;;4.80;;
55461;SDS011;41327;45.102;20.624;2022-09-21T09:42:46;7.05;;;5.20;;
55461;SDS011;41327;45.102;20.624;2022-09-21T09:51:25;8.35;;;4.93;;
55461;SDS011;41327;45.102;20.624;2022-09-21T09:54:25;7.32;;;5.03;;
55461;SDS011;41327;45.102;20.624;2022-09-21T09:56:55;8.55;;;5.70;;
55461;SDS011;41327;45.102;20.624;2022-09-21T09:59:34;7.28;;;5.50;;
55461;SDS011;41327;45.102;20.624;2022-09-21T10:02:26;9.15;;;6.15;;
55461;SDS011;41327;45.102;20.624;2022-09-21T10:04:55;7.20;;;5.47;;
55461;SDS011;41327;45.102;20.624;2022-09-21T10:07:38;6.70;;;4.85;;
55461;SDS011;41327;45.102;20.624;2022-09-21T10:12:46;7.68;;;4.75;;
55461;SDS011;41327;45.102;20.624;2022-09-21T10:15:12;5.30;;;4.18;;
55461;SDS011;41327;45.102;20.624;2022-09-21T10:17:37;7.50;;;5.40;;
55461;SDS011;41327;45.102;20.624;2022-09-21T10:20:04;8.75;;;5.50;;
55461;SDS011;41327;45.102;20.624;2022-09-21T10:22:32;7.05;;;4.93;;
55461;SDS011;41327;45.102;20.624;2022-09-21T10:24:57;6.15;;;4.63;;
55461;SDS011;41327;45.102;20.624;2022-09-21T10:27:33;6.47;;;5.22;;
55461;SDS011;41327;45.102;20.624;2022-09-21T10:30:00;6.20;;;4.78;;
55461;SDS011;41327;45.102;20.624;2022-09-21T10:32:28;7.32;;;5.45;;
55461;SDS011;41327;45.102;20.624;2022-09-21T10:35:11;7.28;;;4.78;;
55461;SDS011;41327;45.102;20.624;2022-09-21T10:37:39;9.02;;;6.20;;
55461;SDS011;41327;45.102;20.624;2022-09-21T10:42:44;9.30;;;6.38;;
55461;SDS011;41327;45.102;20.624;2022-09-21T10:45:17;9.13;;;6.75;;
55461;SDS011;41327;45.102;20.624;2022-09-21T10:47:48;8.53;;;5.87;;
55461;SDS011;41327;45.102;20.624;2022-09-21T10:50:21;8.48;;;6.03;;
55461;SDS011;41327;45.102;20.624;2022-09-21T10:52:49;7.35;;;5.35;;
55461;SDS011;41327;45.102;20.624;2022-09-21T10:55:21;7.78;;;5.47;;
55461;SDS011;41327;45.102;20.624;2022-09-21T10:57:47;7.72;;;5.40;;
55461;SDS011;41327;45.102;20.624;2022-09-21T11:02:49;16.58;;;10.52;;
55461;SDS011;41327;45.102;20.624;2022-09-21T11:05:26;20.00;;;11.38;;
55461;SDS011;41327;45.102;20.624;2022-09-21T11:07:56;16.15;;;10.38;;
55461;SDS011;41327;45.102;20.624;2022-09-21T11:10:42;10.73;;;7.32;;
55461;SDS011;41327;45.102;20.624;2022-09-21T11:15:57;12.47;;;8.50;;
55461;SDS011;41327;45.102;20.624;2022-09-21T11:18:33;11.13;;;7.80;;
55461;SDS011;41327;45.102;20.624;2022-09-21T11:21:07;11.38;;;7.43;;
55461;SDS011;41327;45.102;20.624;2022-09-21T11:23:46;11.10;;;7.75;;
55461;SDS011;41327;45.102;20.624;2022-09-21T11:29:16;7.00;;;5.85;;
55461;SDS011;41327;45.102;20.624;2022-09-21T11:34:57;5.47;;;4.75;;
55461;SDS011;41327;45.102;20.624;2022-09-21T11:37:49;8.52;;;6.10;;
55461;SDS011;41327;45.102;20.624;2022-09-21T11:40:42;7.47;;;5.32;;
55461;SDS011;41327;45.102;20.624;2022-09-21T11:49:01;2.35;;;0.95;;
55461;SDS011;41327;45.102;20.624;2022-09-21T11:54:59;6.07;;;2.85;;
55461;SDS011;41327;45.102;20.624;2022-09-21T11:57:30;3.25;;;1.40;;
55461;SDS011;41327;45.102;20.624;2022-09-21T12:00:07;1.83;;;1.40;;
55461;SDS011;41327;45.102;20.624;2022-09-21T12:02:57;2.35;;;1.83;;
55461;SDS011;41327;45.102;20.624;2022-09-21T12:08:37;1.70;;;1.50;;
55461;SDS011;41327;45.102;20.624;2022-09-21T12:11:42;1.98;;;1.50;;
55461;SDS011;41327;45.102;20.624;2022-09-21T12:16:48;2.85;;;1.90;;
55461;SDS011;41327;45.102;20.624;2022-09-21T12:19:38;4.80;;;2.20;;
55461;SDS011;41327;45.102;20.624;2022-09-21T12:22:12;2.85;;;2.00;;
55461;SDS011;41327;45.102;20.624;2022-09-21T12:24:51;2.33;;;2.00;;
55461;SDS011;41327;45.102;20.624;2022-09-21T12:30:21;4.47;;;2.00;;
55461;SDS011;41327;45.102;20.624;2022-09-21T12:35:43;3.08;;;1.52;;
55461;SDS011;41327;45.102;20.624;2022-09-21T12:38:21;3.03;;;1.42;;
55461;SDS011;41327;45.102;20.624;2022-09-21T12:46:59;1.90;;;1.20;;
55461;SDS011;41327;45.102;20.624;2022-09-21T12:49:35;0.75;;;0.70;;
55461;SDS011;41327;45.102;20.624;2022-09-21T12:52:04;0.75;;;0.60;;
55461;SDS011;41327;45.102;20.624;2022-09-21T13:00:12;1.13;;;1.02;;
55461;SDS011;41327;45.102;20.624;2022-09-21T13:08:12;0.98;;;0.50;;
55461;SDS011;41327;45.102;20.624;2022-09-21T13:10:59;2.08;;;0.50;;
55461;SDS011;41327;45.102;20.624;2022-09-21T13:13:48;1.85;;;0.52;;
55461;SDS011;41327;45.102;20.624;2022-09-21T13:16:33;0.73;;;0.70;;
55461;SDS011;41327;45.102;20.624;2022-09-21T13:19:01;3.63;;;1.13;;
55461;SDS011;41327;45.102;20.624;2022-09-21T13:21:29;1.40;;;0.90;;
55461;SDS011;41327;45.102;20.624;2022-09-21T13:23:57;1.77;;;1.33;;
55461;SDS011;41327;45.102;20.624;2022-09-21T13:26:57;3.60;;;1.83;;
55461;SDS011;41327;45.102;20.624;2022-09-21T13:34:31;1.52;;;1.10;;
55461;SDS011;41327;45.102;20.624;2022-09-21T13:47:40;1.77;;;1.38;;
55461;SDS011;41327;45.102;20.624;2022-09-21T13:53:00;1.55;;;1.30;;
55461;SDS011;41327;45.102;20.624;2022-09-21T13:55:28;1.75;;;1.30;;
55461;SDS011;41327;45.102;20.624;2022-09-21T13:57:57;2.00;;;1.60;;
55461;SDS011;41327;45.102;20.624;2022-09-21T14:03:33;2.60;;;1.75;;
55461;SDS011;41327;45.102;20.624;2022-09-21T14:08:55;2.33;;;1.92;;
55461;SDS011;41327;45.102;20.624;2022-09-21T14:11:33;1.95;;;1.38;;
55461;SDS011;41327;45.102;20.624;2022-09-21T14:24:33;4.32;;;1.73;;
55461;SDS011;41327;45.102;20.624;2022-09-21T14:27:30;2.65;;;1.60;;
55461;SDS011;41327;45.102;20.624;2022-09-21T14:29:57;2.08;;;1.25;;
55461;SDS011;41327;45.102;20.624;2022-09-21T14:32:29;1.98;;;1.52;;
55461;SDS011;41327;45.102;20.624;2022-09-21T14:35:01;4.57;;;2.00;;
55461;SDS011;41327;45.102;20.624;2022-09-21T14:37:39;2.47;;;1.80;;
55461;SDS011;41327;45.102;20.624;2022-09-21T14:40:15;2.88;;;1.70;;
55461;SDS011;41327;45.102;20.624;2022-09-21T14:42:43;1.50;;;1.08;;
55461;SDS011;41327;45.102;20.624;2022-09-21T14:45:13;3.13;;;2.08;;
55461;SDS011;41327;45.102;20.624;2022-09-21T14:47:51;2.03;;;1.80;;
55461;SDS011;41327;45.102;20.624;2022-09-21T14:51:13;2.90;;;1.90;;
55461;SDS011;41327;45.102;20.624;2022-09-21T14:58:52;118.07;;;35.53;;
55461;SDS011;41327;45.102;20.624;2022-09-21T15:02:45;46.33;;;22.80;;
55461;SDS011;41327;45.102;20.624;2022-09-21T15:07:35;4.25;;;1.92;;
55461;SDS011;41327;45.102;20.624;2022-09-21T15:16:23;3.10;;;2.17;;
55461;SDS011;41327;45.102;20.624;2022-09-21T15:19:13;3.00;;;2.38;;
55461;SDS011;41327;45.102;20.624;2022-09-21T15:21:53;4.93;;;2.50;;
55461;SDS011;41327;45.102;20.624;2022-09-21T15:24:27;6.15;;;4.38;;
55461;SDS011;41327;45.102;20.624;2022-09-21T15:27:04;3.20;;;2.22;;
55461;SDS011;41327;45.102;20.624;2022-09-21T15:29:34;2.08;;;1.50;;
55461;SDS011;41327;45.102;20.624;2022-09-21T15:32:00;2.30;;;1.42;;
55461;SDS011;41327;45.102;20.624;2022-09-21T15:34:26;2.83;;;1.50;;
55461;SDS011;41327;45.102;20.624;2022-09-21T15:36:52;3.22;;;1.55;;
55461;SDS011;41327;45.102;20.624;2022-09-21T15:39:28;2.83;;;1.65;;
55461;SDS011;41327;45.102;20.624;2022-09-21T15:44:37;2.55;;;1.40;;
55461;SDS011;41327;45.102;20.624;2022-09-21T15:47:06;3.13;;;2.00;;
55461;SDS011;41327;45.102;20.624;2022-09-21T15:49:34;2.88;;;1.98;;
55461;SDS011;41327;45.102;20.624;2022-09-21T15:52:10;1.77;;;1.40;;
55461;SDS011;41327;45.102;20.624;2022-09-21T15:55:00;1.60;;;1.00;;
55461;SDS011;41327;45.102;20.624;2022-09-21T16:00:01;3.40;;;1.38;;
55461;SDS011;41327;45.102;20.624;2022-09-21T16:02:35;1.50;;;1.02;;
55461;SDS011;41327;45.102;20.624;2022-09-21T16:05:03;2.35;;;1.50;;
55461;SDS011;41327;45.102;20.624;2022-09-21T16:07:33;2.25;;;1.52;;
55461;SDS011;41327;45.102;20.624;2022-09-21T16:10:34;3.75;;;2.28;;
55461;SDS011;41327;45.102;20.624;2022-09-21T16:13:09;2.45;;;1.70;;
55461;SDS011;41327;45.102;20.624;2022-09-21T16:18:31;3.33;;;2.70;;
55461;SDS011;41327;45.102;20.624;2022-09-21T16:23:39;2.60;;;1.80;;
55461;SDS011;41327;45.102;20.624;2022-09-21T16:26:04;1.80;;;1.67;;
55461;SDS011;41327;45.102;20.624;2022-09-21T16:28:38;2.40;;;1.67;;
55461;SDS011;41327;45.102;20.624;2022-09-21T16:34:19;3.83;;;2.50;;
55461;SDS011;41327;45.102;20.624;2022-09-21T16:36:57;7.90;;;5.13;;
55461;SDS011;41327;45.102;20.624;2022-09-21T16:39:23;10.27;;;5.88;;
55461;SDS011;41327;45.102;20.624;2022-09-21T16:41:55;11.55;;;7.60;;
55461;SDS011;41327;45.102;20.624;2022-09-21T16:44:24;11.05;;;6.85;;
55461;SDS011;41327;45.102;20.624;2022-09-21T16:46:53;11.80;;;7.40;;
55461;SDS011;41327;45.102;20.624;2022-09-21T16:49:20;15.45;;;6.55;;
55461;SDS011;41327;45.102;20.624;2022-09-21T16:51:47;13.57;;;7.20;;
55461;SDS011;41327;45.102;20.624;2022-09-21T16:54:17;12.25;;;6.45;;
55461;SDS011;41327;45.102;20.624;2022-09-21T16:56:46;9.90;;;6.03;;
55461;SDS011;41327;45.102;20.624;2022-09-21T16:59:13;11.80;;;4.95;;
55461;SDS011;41327;45.102;20.624;2022-09-21T17:01:40;8.20;;;4.78;;
55461;SDS011;41327;45.102;20.624;2022-09-21T17:04:07;8.43;;;5.30;;
55461;SDS011;41327;45.102;20.624;2022-09-21T17:06:37;7.15;;;5.18;;
55461;SDS011;41327;45.102;20.624;2022-09-21T17:09:38;5.50;;;4.28;;
55461;SDS011;41327;45.102;20.624;2022-09-21T17:12:03;6.63;;;4.40;;
55461;SDS011;41327;45.102;20.624;2022-09-21T17:14:32;7.93;;;5.07;;
55461;SDS011;41327;45.102;20.624;2022-09-21T17:17:22;6.70;;;5.03;;
55461;SDS011;41327;45.102;20.624;2022-09-21T17:19:47;6.50;;;4.85;;
55461;SDS011;41327;45.102;20.624;2022-09-21T17:22:14;11.02;;;6.78;;
55461;SDS011;41327;45.102;20.624;2022-09-21T17:24:46;11.07;;;8.25;;
55461;SDS011;41327;45.102;20.624;2022-09-21T17:27:13;12.35;;;8.73;;
55461;SDS011;41327;45.102;20.624;2022-09-21T17:29:41;17.65;;;11.70;;
55461;SDS011;41327;45.102;20.624;2022-09-21T17:32:12;20.73;;;14.38;;
55461;SDS011;41327;45.102;20.624;2022-09-21T17:34:38;19.17;;;13.88;;
55461;SDS011;41327;45.102;20.624;2022-09-21T17:37:06;22.00;;;14.80;;
55461;SDS011;41327;45.102;20.624;2022-09-21T17:39:34;17.70;;;11.93;;
55461;SDS011;41327;45.102;20.624;2022-09-21T17:42:21;12.75;;;9.50;;
55461;SDS011;41327;45.102;20.624;2022-09-21T17:44:51;11.50;;;8.07;;
55461;SDS011;41327;45.102;20.624;2022-09-21T17:47:36;13.10;;;8.07;;
55461;SDS011;41327;45.102;20.624;2022-09-21T17:52:38;14.57;;;8.23;;
55461;SDS011;41327;45.102;20.624;2022-09-21T17:55:23;12.75;;;6.93;;
55461;SDS011;41327;45.102;20.624;2022-09-21T18:00:23;8.88;;;5.00;;